Webster Springs, WV

7:56 AM EST on December 09, 2016 (GMT -0500)
FERN RIDGE MINIATURE DONKEY FARM , WEBSTER SPRINGS,WV | | Change Station

Elev 1919 ft 38.53 °N, 80.41 °W | Updated 1 minute ago

Overcast
Overcast
19.0 °F
Feels Like 13 °F
N
4.2
Wind Variable Wind from East

Today
High -- | Low -- °F
--% Chance of Precip.
Yesterday
High -- | Low -- °F
Precip. -- in
Pressure 30.36 in
Visibility 1.5 miles
Clouds
Windchill 13 °F
Dew Point 16 °F
Humidity 86%
Rainfall 0.00 in
Snow Depth Not available.
7:27 AM 5:00 PM
Waxing Gibbous, 73% visible
METAR KW22 091235Z AUTO 25008KT 1 1/2SM BR M07/M08 A3036 RMK AO2 PWINO
Pressure 30.36 in
Visibility 1.5 miles
Clouds
Windchill 13 °F
Dew Point 16 °F
Humidity 86%
Rainfall 0.00 in
Snow Depth Not available.
7:27 AM 5:00 PM
Waxing Gibbous, 73% visible
METAR KW22 091235Z AUTO 25008KT 1 1/2SM BR M07/M08 A3036 RMK AO2 PWINO

10-Day Weather Forecast

Almanac

Astronomy

Dec. 09, 2016 Rise Set
Actual Time
Civil Twilight
Nautical Twilight
Astronomical Twilight
Moon
Length of Visible Light
Length of Day
Tomorrow will be .
, % of the Moon is Illuminated

Today's Extremes

State Highs State Lows

Community

WunderPhotos

Upload Photos

1,956,407 photos uploaded!

WunderBlog® & News

Nearby

Air Quality

  Air Quality AQ Index Pollutant
Not available.

Snow Depth

Station Depth Elevation

Earthquake Activity

City Distance Mag. Time & Date
Minimum magnitude displayed is 2.5.

Coastal Water Temperatures

Place Temperature

Stations

Nearby Weather Stations

Station Location Temp. Windchill Dew Point Humidity Wind Precip. Elev Updated Type
                   

Watches & Warnings

There are currently no watches in effect.